Time;durP1;ratioP1;P1;durP2;ratioP2;P2;SDS_P1;SDS_P2;PMS_P1;PMS_P2;Temp;Humidity;BMP_temperature;BMP_pressure;BME280_temperature;BME280_humidity;BME280_pressure;Samples;Min_cycle;Max_cycle;Signal;HPM_P1;HPM_P2
2021/12/04 00:02:06;;;;;;;2.37;2.17;;;5.50;99.90;;;;;;4996783;28;20478;-60
2021/12/04 00:04:37;;;;;;;2.90;2.60;;;5.50;99.90;;;;;;4979393;28;20834;-61
2021/12/04 00:07:05;;;;;;;2.47;2.27;;;5.50;99.90;;;;;;4997716;28;20439;-61
2021/12/04 00:09:32;;;;;;;3.03;2.77;;;5.50;99.90;;;;;;4995976;28;20447;-60
2021/12/04 00:12:02;;;;;;;3.80;2.60;;;5.50;99.90;;;;;;4979655;28;20408;-61
2021/12/04 00:14:32;;;;;;;3.03;2.40;;;5.40;99.90;;;;;;4979939;28;20415;-60
2021/12/04 00:16:59;;;;;;;3.27;2.80;;;5.50;99.90;;;;;;4980255;28;20396;-61
2021/12/04 00:19:26;;;;;;;2.60;2.40;;;5.50;99.90;;;;;;4978530;28;20420;-61
2021/12/04 00:21:52;;;;;;;3.20;2.90;;;5.50;99.90;;;;;;4980121;28;20923;-60
2021/12/04 00:24:19;;;;;;;2.60;2.40;;;5.50;99.90;;;;;;4996234;28;20419;-60
2021/12/04 00:26:46;;;;;;;2.80;2.60;;;5.60;99.90;;;;;;4997296;28;20987;-61
2021/12/04 00:29:12;;;;;;;2.93;2.73;;;5.60;99.90;;;;;;4979544;28;20789;-60
2021/12/04 00:31:43;;;;;;;3.43;3.03;;;5.70;99.90;;;;;;4979060;28;20416;-60
2021/12/04 00:34:09;;;;;;;3.77;2.90;;;5.70;99.90;;;;;;4981789;28;20394;-61
2021/12/04 00:50:19;;;;;;;7.63;3.53;;;5.90;99.90;;;;;;4976622;28;20420;-61
2021/12/04 00:52:45;;;;;;;2.97;2.70;;;5.70;99.90;;;;;;4979235;28;20418;-58
2021/12/04 00:55:11;;;;;;;4.53;3.03;;;5.80;99.90;;;;;;4978544;28;20189;-60
2021/12/04 00:57:38;;;;;;;4.93;4.53;;;5.90;99.90;;;;;;4978671;28;20629;-60
2021/12/04 01:00:06;;;;;;;3.47;3.07;;;6.00;99.90;;;;;;4978681;28;20192;-62
2021/12/04 01:02:32;;;;;;;3.80;2.67;;;5.90;99.90;;;;;;4959585;28;20440;-61
2021/12/04 01:04:58;;;;;;;3.30;2.80;;;5.90;99.90;;;;;;4960151;28;20980;-60
2021/12/04 01:07:25;;;;;;;6.80;3.23;;;5.90;99.90;;;;;;4975753;28;20203;-61
2021/12/04 01:09:51;;;;;;;3.80;3.43;;;5.80;99.90;;;;;;4979403;28;20165;-61
2021/12/04 01:12:17;;;;;;;4.07;3.20;;;5.70;99.90;;;;;;4991904;28;20456;-61
2021/12/04 01:14:43;;;;;;;3.40;3.10;;;5.70;99.90;;;;;;4988052;28;20464;-61
2021/12/04 01:17:09;;;;;;;3.77;2.90;;;5.60;99.90;;;;;;4996104;28;20177;-61
2021/12/04 01:19:36;;;;;;;3.23;3.03;;;5.70;99.90;;;;;;4977980;28;20413;-60
2021/12/04 01:22:03;;;;;;;5.00;2.93;;;5.70;99.90;;;;;;4978060;28;20180;-61
2021/12/04 01:24:28;;;;;;;4.17;3.20;;;5.70;99.90;;;;;;4977608;28;20416;-61
2021/12/04 01:26:54;;;;;;;5.37;3.13;;;5.70;99.90;;;;;;4995928;28;20458;-60
2021/12/04 01:29:20;;;;;;;3.90;3.10;;;5.60;99.90;;;;;;4977512;28;20263;-61
2021/12/04 01:31:47;;;;;;;3.63;3.17;;;5.50;99.90;;;;;;4995316;28;20403;-60
2021/12/04 01:34:14;;;;;;;3.40;3.10;;;5.60;99.90;;;;;;4977411;28;20421;-60
2021/12/04 01:36:40;;;;;;;3.33;2.90;;;5.60;99.90;;;;;;4978233;28;20467;-60
2021/12/04 01:39:06;;;;;;;3.40;3.10;;;5.50;99.90;;;;;;4968451;28;20871;-59
2021/12/04 01:41:33;;;;;;;3.33;3.03;;;5.60;99.90;;;;;;4995794;28;20169;-59
2021/12/04 01:44:00;;;;;;;3.20;2.90;;;5.40;99.90;;;;;;4994866;28;21112;-61
2021/12/04 01:46:27;;;;;;;5.97;3.97;;;5.40;99.90;;;;;;4977796;28;20487;-60
2021/12/04 01:48:53;;;;;;;4.63;3.10;;;5.40;99.90;;;;;;4995441;28;20955;-60
2021/12/04 01:51:19;;;;;;;3.13;2.83;;;5.30;99.90;;;;;;4978107;28;20404;-60
2021/12/04 01:53:45;;;;;;;3.70;2.93;;;5.20;99.90;;;;;;4995274;28;20415;-60
2021/12/04 01:56:10;;;;;;;3.17;2.87;;;5.20;99.90;;;;;;4978076;28;20544;-59
2021/12/04 01:58:37;;;;;;;3.40;3.10;;;5.20;99.90;;;;;;4995598;28;20173;-60
2021/12/04 02:01:03;;;;;;;3.20;2.80;;;5.30;99.90;;;;;;4971428;28;20200;-60
2021/12/04 02:03:29;;;;;;;2.73;2.53;;;5.20;99.90;;;;;;4976601;28;20408;-60
2021/12/04 02:05:55;;;;;;;2.80;2.60;;;5.10;99.90;;;;;;4958750;28;20985;-61
2021/12/04 02:08:23;;;;;;;3.40;2.57;;;5.30;99.90;;;;;;4976437;28;20674;-60
2021/12/04 02:10:52;;;;;;;3.53;3.00;;;5.20;99.90;;;;;;4976568;28;20424;-60
2021/12/04 02:13:19;;;;;;;3.70;2.97;;;5.20;99.90;;;;;;4978386;28;20473;-61
2021/12/04 02:15:45;;;;;;;3.20;2.50;;;5.00;99.90;;;;;;4994066;28;20527;-61
2021/12/04 02:18:12;;;;;;;3.30;2.90;;;5.10;99.90;;;;;;4995322;28;20411;-61
2021/12/04 02:20:39;;;;;;;5.70;3.97;;;5.10;99.90;;;;;;4976855;28;20427;-58
2021/12/04 02:23:07;;;;;;;3.40;2.90;;;5.10;99.90;;;;;;4977842;28;20458;-60
2021/12/04 02:25:33;;;;;;;4.20;3.40;;;5.10;99.90;;;;;;4994336;23;20512;-59
2021/12/04 02:28:01;;;;;;;4.50;3.60;;;5.20;99.90;;;;;;4979983;28;20459;-62
2021/12/04 02:30:29;;;;;;;4.40;3.50;;;5.10;99.90;;;;;;4994599;28;20407;-60
2021/12/04 02:32:56;;;;;;;3.37;2.97;;;5.30;99.90;;;;;;5013688;28;20434;-60
2021/12/04 02:35:25;;;;;;;4.37;3.33;;;5.20;99.90;;;;;;4978953;28;20449;-61
2021/12/04 02:37:50;;;;;;;4.33;3.57;;;5.10;99.90;;;;;;5013483;28;20410;-60
2021/12/04 02:40:21;;;;;;;3.43;3.13;;;5.10;99.90;;;;;;5013600;28;20968;-60
2021/12/04 02:42:47;;;;;;;4.30;3.63;;;4.90;99.90;;;;;;4995816;28;20400;-60
2021/12/04 02:45:13;;;;;;;3.90;3.50;;;4.90;99.90;;;;;;4978362;28;20415;-62
2021/12/04 02:47:39;;;;;;;4.37;3.97;;;5.10;99.90;;;;;;4975988;28;20448;-59
2021/12/04 02:50:07;;;;;;;5.43;4.57;;;5.00;99.90;;;;;;4993787;28;20419;-61
2021/12/04 02:52:34;;;;;;;5.13;4.60;;;4.90;99.90;;;;;;4976011;28;20790;-60
2021/12/04 02:55:01;;;;;;;5.03;4.50;;;4.80;99.90;;;;;;4976611;28;20491;-60
2021/12/04 02:57:28;;;;;;;5.77;5.00;;;4.70;99.90;;;;;;4988601;28;20600;-60
2021/12/04 02:59:54;;;;;;;6.70;6.00;;;4.70;99.90;;;;;;4993518;28;20436;-60
2021/12/04 03:02:21;;;;;;;7.40;5.50;;;4.80;99.90;;;;;;4959147;28;20424;-59
2021/12/04 03:04:50;;;;;;;5.10;4.70;;;4.70;99.90;;;;;;4993454;28;20412;-58
2021/12/04 03:07:17;;;;;;;6.53;5.63;;;4.60;99.90;;;;;;4988536;28;20458;-62
2021/12/04 03:09:43;;;;;;;7.70;5.80;;;4.60;99.90;;;;;;4996367;28;20748;-59
2021/12/04 03:12:10;;;;;;;7.33;6.67;;;4.50;99.90;;;;;;4994754;28;20414;-61
2021/12/04 03:14:36;;;;;;;5.90;5.40;;;4.50;99.90;;;;;;4995398;28;20172;-61
2021/12/04 03:17:02;;;;;;;6.33;5.60;;;4.80;99.90;;;;;;5011530;28;20466;-61
2021/12/04 03:19:28;;;;;;;7.43;5.97;;;4.80;99.90;;;;;;4995456;28;20422;-61
2021/12/04 03:21:55;;;;;;;5.80;5.20;;;4.80;99.90;;;;;;4995488;28;20406;-61
2021/12/04 03:24:21;;;;;;;7.10;5.60;;;4.70;99.90;;;;;;4995896;28;20191;-61
2021/12/04 03:26:50;;;;;;;5.90;5.40;;;4.80;99.90;;;;;;4993947;28;20470;-61
2021/12/04 03:29:19;;;;;;;6.97;6.13;;;4.90;99.90;;;;;;5005460;28;20435;-61
2021/12/04 03:40:10;;;;;;;7.47;6.20;;;5.10;99.90;;;;;;5002024;28;20900;-61
2021/12/04 03:42:40;;;;;;;5.37;4.43;;;5.10;99.90;;;;;;5016440;28;20834;-58
2021/12/04 03:45:08;;;;;;;6.30;5.70;;;5.30;99.90;;;;;;5015837;28;20494;-61
2021/12/04 03:47:36;;;;;;;6.47;5.80;;;5.20;99.90;;;;;;4998716;28;21029;-61
2021/12/04 03:50:02;;;;;;;7.60;5.70;;;5.30;99.90;;;;;;5016311;28;20776;-61
2021/12/04 03:52:28;;;;;;;5.27;4.77;;;5.40;99.90;;;;;;4981321;28;20425;-59
2021/12/04 03:54:56;;;;;;;4.93;4.50;;;5.30;99.90;;;;;;5016461;28;20876;-61
2021/12/04 03:57:22;;;;;;;5.73;5.07;;;5.30;99.90;;;;;;5015509;28;20206;-61
2021/12/04 03:59:48;;;;;;;5.53;4.93;;;5.30;99.90;;;;;;4997981;28;20792;-61
2021/12/04 04:02:16;;;;;;;4.67;3.70;;;5.40;99.90;;;;;;4998320;28;20204;-61
2021/12/04 04:04:41;;;;;;;5.20;4.70;;;5.40;99.90;;;;;;5013046;28;20431;-62
2021/12/04 04:07:08;;;;;;;5.53;4.93;;;5.40;99.90;;;;;;4987152;28;20447;-61
2021/12/04 04:09:34;;;;;;;5.10;4.60;;;5.50;99.90;;;;;;4983569;28;20172;-61
2021/12/04 04:12:00;;;;;;;3.67;3.37;;;5.60;99.90;;;;;;5015898;28;20407;-60
2021/12/04 04:14:26;;;;;;;4.33;3.93;;;5.50;99.90;;;;;;4997100;28;20395;-61
2021/12/04 04:16:54;;;;;;;4.13;3.73;;;5.60;99.90;;;;;;4998403;28;20513;-59
2021/12/04 04:19:21;;;;;;;5.57;3.83;;;5.60;99.90;;;;;;4998026;28;20446;-60
2021/12/04 04:21:47;;;;;;;4.83;4.30;;;5.70;99.90;;;;;;5015442;28;20503;-59
2021/12/04 04:24:16;;;;;;;4.90;4.30;;;5.70;99.90;;;;;;4997840;28;21010;-60
2021/12/04 04:26:43;;;;;;;4.37;3.97;;;5.80;99.90;;;;;;4998426;28;20471;-60
2021/12/04 04:29:10;;;;;;;6.33;5.57;;;5.90;99.90;;;;;;4997131;28;20557;-60
2021/12/04 04:31:43;;;;;;;5.67;5.17;;;5.90;99.90;;;;;;4998152;28;20403;-60
2021/12/04 04:34:09;;;;;;;5.70;4.77;;;5.90;99.90;;;;;;5003961;28;20428;-60
2021/12/04 05:11:16;;;;;;;6.10;5.50;;;6.20;99.90;;;;;;4999017;28;20502;-59
2021/12/04 05:13:42;;;;;;;5.63;5.03;;;6.30;99.90;;;;;;4998285;28;20387;-60
2021/12/04 05:16:17;;;;;;;4.57;4.03;;;6.30;99.90;;;;;;4996153;28;20439;-60
2021/12/04 05:19:00;;;;;;;5.90;5.00;;;6.30;99.90;;;;;;4998597;28;20621;-59
2021/12/04 05:21:26;;;;;;;5.13;4.50;;;6.40;99.90;;;;;;5013161;28;20436;-60
2021/12/04 05:23:56;;;;;;;5.57;4.87;;;6.40;99.90;;;;;;4997272;28;20396;-60
2021/12/04 05:26:27;;;;;;;4.93;4.43;;;6.40;99.90;;;;;;4994151;28;20212;-59
2021/12/04 05:28:55;;;;;;;5.60;4.17;;;6.40;99.90;;;;;;4981249;28;20517;-59
2021/12/04 05:31:21;;;;;;;7.60;4.97;;;6.40;99.90;;;;;;4995730;28;20507;-58
2021/12/04 05:33:48;;;;;;;4.80;4.30;;;6.30;99.90;;;;;;4997114;28;20473;-60
2021/12/04 05:36:14;;;;;;;6.60;5.00;;;6.20;99.90;;;;;;4997195;28;20432;-58
2021/12/04 05:38:40;;;;;;;5.60;5.10;;;6.20;99.90;;;;;;5012970;28;20430;-59
2021/12/04 05:41:06;;;;;;;5.90;4.20;;;6.30;99.90;;;;;;5014298;28;20818;-60
2021/12/04 05:43:34;;;;;;;4.47;4.00;;;6.30;99.90;;;;;;5012954;28;20521;-60
2021/12/04 05:46:10;;;;;;;6.60;5.30;;;6.30;99.90;;;;;;5014272;28;20479;-60
2021/12/04 05:56:19;;;;;;;4.53;4.13;;;6.50;99.90;;;;;;4996374;28;20451;-59
2021/12/04 05:58:45;;;;;;;6.93;4.17;;;6.50;99.90;;;;;;4996201;28;20410;-60
2021/12/04 06:01:11;;;;;;;9.93;6.57;;;6.60;99.90;;;;;;5012506;28;20428;-59
2021/12/04 06:03:37;;;;;;;6.70;5.63;;;6.50;99.90;;;;;;4996265;28;20992;-59
2021/12/04 06:06:04;;;;;;;5.83;5.23;;;6.50;99.90;;;;;;4994969;28;20461;-59
2021/12/04 06:08:30;;;;;;;6.90;5.40;;;6.50;99.90;;;;;;4996426;28;20172;-55
2021/12/04 06:10:56;;;;;;;6.10;5.40;;;6.50;99.90;;;;;;4995835;28;20406;-59
2021/12/04 06:13:23;;;;;;;6.93;5.00;;;6.50;99.90;;;;;;4996026;28;20477;-60
2021/12/04 06:15:49;;;;;;;5.90;5.30;;;6.60;99.90;;;;;;4996440;28;20428;-60
2021/12/04 06:18:16;;;;;;;6.30;5.70;;;6.70;99.90;;;;;;4995205;28;20410;-60
2021/12/04 06:23:29;;;;;;;5.97;5.37;;;6.60;99.90;;;;;;4977876;28;20423;-60
2021/12/04 06:25:55;;;;;;;6.30;5.70;;;6.50;99.90;;;;;;5012996;28;20438;-59
2021/12/04 06:28:21;;;;;;;5.57;4.97;;;6.40;99.90;;;;;;5012399;28;20420;-60
2021/12/04 06:30:47;;;;;;;5.60;4.03;;;6.40;99.90;;;;;;5013408;28;20172;-60
2021/12/04 06:33:17;;;;;;;4.03;3.60;;;6.40;99.90;;;;;;5012280;28;20260;-59
2021/12/04 06:35:46;;;;;;;4.33;3.93;;;6.50;99.90;;;;;;4996581;28;20432;-60
2021/12/04 06:38:13;;;;;;;3.20;2.90;;;6.60;99.90;;;;;;5013300;28;20461;-60
2021/12/04 06:40:39;;;;;;;1.63;1.53;;;6.60;99.90;;;;;;5012664;28;20997;-60
2021/12/04 06:43:06;;;;;;;2.80;2.50;;;6.60;99.90;;;;;;5013096;28;20399;-60
2021/12/04 06:45:34;;;;;;;6.13;2.10;;;6.50;99.90;;;;;;5013192;28;20473;-60
2021/12/04 06:48:07;;;;;;;2.13;1.93;;;6.50;99.90;;;;;;5011999;28;20443;-59
2021/12/04 06:50:44;;;;;;;2.30;2.03;;;6.60;99.90;;;;;;5013568;28;20391;-60
2021/12/04 06:53:26;;;;;;;11.43;7.20;;;6.50;99.90;;;;;;5012156;28;20420;-60
2021/12/04 06:55:54;;;;;;;106.20;56.20;;;6.40;99.90;;;;;;5013247;28;20518;-60
2021/12/04 06:58:21;;;;;;;31.00;19.30;;;6.50;99.90;;;;;;5011292;28;20504;-60
2021/12/04 07:00:47;;;;;;;4.70;2.07;;;6.60;99.90;;;;;;4997646;28;20409;-61
2021/12/04 07:03:12;;;;;;;10.67;9.03;;;6.80;99.90;;;;;;4992577;28;20781;-61
2021/12/04 07:05:38;;;;;;;4.40;3.80;;;7.00;99.90;;;;;;4993712;28;20483;-58
2021/12/04 07:08:07;;;;;;;2.50;2.30;;;7.10;99.90;;;;;;4975892;28;20222;-59
2021/12/04 07:10:34;;;;;;;11.40;8.27;;;7.00;99.90;;;;;;5011332;28;20190;-60
2021/12/04 07:13:00;;;;;;;9.83;8.20;;;7.00;99.90;;;;;;5017179;28;20405;-59
2021/12/04 07:15:28;;;;;;;1.27;1.17;;;6.90;99.90;;;;;;5015362;28;20944;-58
2021/12/04 07:17:53;;;;;;;9.63;8.63;;;6.80;99.90;;;;;;5016883;28;20496;-59
2021/12/04 07:20:19;;;;;;;3.43;3.13;;;6.70;99.90;;;;;;5016110;28;20523;-60
2021/12/04 07:22:45;;;;;;;5.40;4.40;;;6.90;99.90;;;;;;5016748;28;20169;-60
2021/12/04 07:25:11;;;;;;;5.57;5.00;;;7.10;99.90;;;;;;5015572;28;20541;-60
2021/12/04 07:27:36;;;;;;;26.07;21.77;;;7.10;99.90;;;;;;5016925;28;20545;-53
2021/12/04 07:30:06;;;;;;;3.53;3.23;;;7.20;99.90;;;;;;5015639;28;20407;-60
2021/12/04 07:32:32;;;;;;;1.60;1.40;;;7.30;99.90;;;;;;5000501;28;20175;-60
2021/12/04 07:34:57;;;;;;;48.10;38.37;;;7.30;99.90;;;;;;4996522;28;20423;-60
2021/12/04 07:37:23;;;;;;;15.53;13.90;;;7.30;99.90;;;;;;5015318;28;20437;-60
2021/12/04 07:39:49;;;;;;;4.73;4.33;;;7.30;99.90;;;;;;5016628;28;20177;-61
2021/12/04 07:42:15;;;;;;;1.33;0.90;;;7.20;99.90;;;;;;5014962;28;20238;-59
2021/12/04 07:44:40;;;;;;;0.80;0.70;;;7.20;99.90;;;;;;5016915;28;20182;-60
2021/12/04 07:47:06;;;;;;;45.40;32.30;;;7.20;99.90;;;;;;5016031;28;20207;-60
2021/12/04 07:49:31;;;;;;;11.17;9.43;;;7.20;99.90;;;;;;5015492;28;20173;-59
2021/12/04 07:51:57;;;;;;;3.00;2.60;;;7.20;99.90;;;;;;5016048;28;20654;-60
2021/12/04 07:54:23;;;;;;;2.63;2.33;;;7.30;99.90;;;;;;5015897;28;20175;-59
2021/12/04 07:56:48;;;;;;;3.60;1.30;;;7.40;99.90;;;;;;5015053;28;20203;-60
2021/12/04 07:59:14;;;;;;;2.03;1.83;;;7.30;99.90;;;;;;5016146;28;20221;-57
2021/12/04 08:01:41;;;;;;;3.40;2.47;;;7.40;99.90;;;;;;4997214;28;20206;-60
2021/12/04 08:04:07;;;;;;;1.53;1.43;;;7.40;99.90;;;;;;5016336;28;20771;-60
2021/12/04 08:06:34;;;;;;;5.10;1.70;;;7.50;99.90;;;;;;5014688;28;20211;-60
2021/12/04 08:09:00;;;;;;;1.40;0.90;;;7.60;99.90;;;;;;5016252;28;20177;-60
2021/12/04 08:11:26;;;;;;;7.70;6.63;;;7.70;99.90;;;;;;5009925;28;20464;-59
2021/12/04 08:13:52;;;;;;;6.17;5.67;;;7.70;99.90;;;;;;4995898;28;20448;-57
2021/12/04 08:16:24;;;;;;;3.17;1.40;;;7.60;99.90;;;;;;4996676;28;20841;-61
2021/12/04 08:18:49;;;;;;;4.40;2.10;;;7.70;99.90;;;;;;5016071;28;20191;-61
2021/12/04 08:21:15;;;;;;;1.50;1.10;;;8.00;99.90;;;;;;5014905;28;20408;-61
2021/12/04 08:23:40;;;;;;;1.10;1.00;;;8.00;99.90;;;;;;5014887;28;20285;-61
2021/12/04 08:26:06;;;;;;;1.23;1.10;;;8.10;99.90;;;;;;5039966;23;20739;-59
2021/12/04 08:28:32;;;;;;;1.03;0.80;;;8.10;99.90;;;;;;5015178;28;20187;-60
2021/12/04 08:30:58;;;;;;;0.90;0.60;;;8.10;99.90;;;;;;5016623;28;20254;-60
2021/12/04 08:33:24;;;;;;;1.67;1.57;;;8.20;99.90;;;;;;5014643;28;20414;-61
2021/12/04 08:35:49;;;;;;;1.20;1.10;;;8.30;99.90;;;;;;5016487;28;20194;-60
2021/12/04 08:38:16;;;;;;;1.07;0.80;;;8.40;99.90;;;;;;5016474;28;20172;-61
2021/12/04 08:40:43;;;;;;;0.80;0.60;;;8.60;99.90;;;;;;4997871;28;20174;-61
2021/12/04 08:43:09;;;;;;;2.13;0.97;;;8.60;99.90;;;;;;4999220;28;20943;-59
2021/12/04 08:45:35;;;;;;;1.47;0.60;;;8.40;99.90;;;;;;4997636;28;20454;-58
2021/12/04 08:48:01;;;;;;;2.03;0.90;;;8.60;99.90;;;;;;5016393;28;20473;-61
2021/12/04 08:50:29;;;;;;;2.00;0.70;;;8.70;99.90;;;;;;4997818;28;20589;-61
2021/12/04 08:52:56;;;;;;;1.40;0.90;;;8.80;99.90;;;;;;5016476;28;20215;-60
2021/12/04 08:55:24;;;;;;;1.37;0.70;;;8.70;99.90;;;;;;4998713;28;20414;-61
2021/12/04 08:57:50;;;;;;;2.47;0.80;;;8.40;99.90;;;;;;4997787;28;20438;-61
2021/12/04 09:00:24;;;;;;;3.80;0.70;;;8.50;99.90;;;;;;4981989;28;20494;-59
2021/12/04 09:02:50;;;;;;;0.80;0.73;;;8.40;99.90;;;;;;5015314;28;20427;-59
2021/12/04 09:05:18;;;;;;;0.93;0.70;;;8.60;99.90;;;;;;4997630;28;20454;-59
2021/12/04 09:07:45;;;;;;;1.00;0.70;;;8.70;99.90;;;;;;5016223;28;20187;-61
2021/12/04 09:10:11;;;;;;;0.80;0.60;;;8.60;99.90;;;;;;4997276;28;20901;-61
2021/12/04 09:12:38;;;;;;;3.30;0.90;;;8.70;99.90;;;;;;5016403;28;20905;-60
2021/12/04 09:15:07;;;;;;;3.57;0.90;;;8.60;99.90;;;;;;5015246;28;20988;-61
2021/12/04 09:17:32;;;;;;;1.53;0.90;;;8.70;99.90;;;;;;5015541;28;20426;-60
2021/12/04 09:19:58;;;;;;;0.90;0.70;;;8.60;99.90;;;;;;4997661;28;20538;-60
2021/12/04 09:22:27;;;;;;;1.00;0.70;;;8.80;99.90;;;;;;5015179;28;20161;-61
2021/12/04 09:24:58;;;;;;;1.20;0.87;;;8.80;99.90;;;;;;4998424;28;20420;-60
2021/12/04 09:30:46;;;;;;;4.30;1.57;;;8.80;99.90;;;;;;4999036;28;20415;-61
2021/12/04 09:33:03;;;;;;;3.10;1.43;;;9.00;99.90;;;;;;4998792;28;20763;-61
2021/12/04 10:13:22;;;;;;;1.47;0.93;;;9.60;99.90;;;;;;5000350;28;20434;-60
2021/12/04 10:34:58;;;;;;;1.30;0.80;;;10.20;99.90;;;;;;5014794;28;20942;-60
2021/12/04 10:37:27;;;;;;;1.77;0.83;;;10.30;99.90;;;;;;4996742;28;21020;-61
2021/12/04 10:39:56;;;;;;;0.90;0.70;;;10.40;99.90;;;;;;5014159;28;20410;-59
2021/12/04 10:42:27;;;;;;;1.20;0.90;;;10.40;99.90;;;;;;4980627;28;20419;-61
2021/12/04 10:44:56;;;;;;;1.30;0.70;;;10.30;99.90;;;;;;4996324;28;21020;-59
2021/12/04 10:47:25;;;;;;;1.07;0.90;;;10.30;99.90;;;;;;4996193;28;20916;-60
2021/12/04 10:55:43;;;;;;;1.40;1.30;;;10.60;99.90;;;;;;5013841;28;20390;-60
2021/12/04 11:21:26;;;;;;;2.23;1.30;;;10.70;99.90;;;;;;5013321;28;20449;-59
2021/12/04 11:37:20;;;;;;;1.83;0.60;;;10.80;99.90;;;;;;5013906;28;20442;-61
2021/12/04 11:40:04;;;;;;;1.43;0.80;;;10.80;99.90;;;;;;4996150;28;20825;-61
2021/12/04 11:45:22;;;;;;;0.87;0.60;;;10.80;99.90;;;;;;5014045;28;20413;-61
2021/12/04 11:47:53;;;;;;;0.90;0.60;;;10.70;99.90;;;;;;4996688;28;21011;-62
2021/12/04 11:50:26;;;;;;;1.00;0.60;;;10.70;99.90;;;;;;5012996;28;20943;-61
2021/12/04 11:52:55;;;;;;;0.80;0.70;;;10.70;99.90;;;;;;5013447;28;20938;-61
2021/12/04 11:55:23;;;;;;;1.90;0.60;;;10.70;99.90;;;;;;4995969;28;20421;-60
2021/12/04 11:57:50;;;;;;;0.83;0.70;;;10.70;99.90;;;;;;5015560;28;20430;-59
2021/12/04 12:00:29;;;;;;;0.87;0.70;;;10.80;99.90;;;;;;4999432;28;20416;-61
2021/12/04 12:03:08;;;;;;;0.80;0.50;;;10.90;99.90;;;;;;5016396;28;20486;-61
2021/12/04 12:05:46;;;;;;;0.70;0.53;;;10.90;99.90;;;;;;4999847;28;20416;-61
2021/12/04 12:08:33;;;;;;;0.70;0.50;;;11.00;99.90;;;;;;4999102;28;20443;-60
2021/12/04 12:11:06;;;;;;;1.10;0.60;;;11.00;99.90;;;;;;5017573;28;20763;-61
2021/12/04 12:13:36;;;;;;;1.43;0.60;;;11.10;99.90;;;;;;4999872;28;20421;-61
2021/12/04 12:16:12;;;;;;;0.70;0.50;;;11.10;99.90;;;;;;4999613;28;20427;-60
2021/12/04 12:18:59;;;;;;;0.80;0.60;;;11.10;99.90;;;;;;5016648;28;20953;-61
2021/12/04 12:21:32;;;;;;;0.93;0.60;;;11.00;99.90;;;;;;4983460;28;20402;-61
2021/12/04 12:32:49;;;;;;;0.70;0.60;;;11.00;99.90;;;;;;4997624;28;20456;-59
2021/12/04 12:38:07;;;;;;;1.00;0.60;;;11.00;99.90;;;;;;5001922;28;20418;-61
2021/12/04 12:40:34;;;;;;;0.80;0.60;;;11.10;99.90;;;;;;5016978;28;20407;-61
2021/12/04 12:43:18;;;;;;;0.90;0.60;;;11.00;99.90;;;;;;5014848;28;20197;-60
2021/12/04 12:45:58;;;;;;;0.87;0.70;;;11.00;99.90;;;;;;5014448;28;20437;-61
2021/12/04 12:48:24;;;;;;;1.23;0.60;;;10.90;99.90;;;;;;5016109;28;21141;-60
2021/12/04 12:50:52;;;;;;;1.20;0.60;;;10.80;99.90;;;;;;5017126;28;20582;-62
2021/12/04 12:53:27;;;;;;;1.23;0.60;;;11.00;99.90;;;;;;5016306;28;20418;-61
2021/12/04 12:56:06;;;;;;;0.90;0.67;;;10.90;99.90;;;;;;5017085;28;20415;-62
2021/12/04 13:12:48;;;;;;;0.73;0.60;;;10.70;99.90;;;;;;5016719;28;20422;-59
2021/12/04 13:15:28;;;;;;;0.80;0.70;;;10.60;99.90;;;;;;5016942;28;20911;-60
2021/12/04 13:17:54;;;;;;;0.80;0.70;;;10.60;99.90;;;;;;5016436;28;20430;-59
2021/12/04 13:20:22;;;;;;;0.70;0.50;;;10.60;99.90;;;;;;5012266;28;20997;-60
2021/12/04 13:22:48;;;;;;;0.90;0.60;;;10.60;99.90;;;;;;4982173;28;20433;-59
2021/12/04 13:25:14;;;;;;;0.90;0.70;;;10.60;99.90;;;;;;5016247;28;20412;-58
2021/12/04 13:30:15;;;;;;;1.03;0.77;;;10.60;99.90;;;;;;5017283;28;20162;-60
2021/12/04 13:32:43;;;;;;;0.80;0.70;;;10.50;99.90;;;;;;5015832;28;20496;-58
2021/12/04 13:35:17;;;;;;;0.70;0.60;;;10.60;99.90;;;;;;5017408;28;20403;-61
2021/12/04 13:37:44;;;;;;;1.10;0.73;;;10.70;99.90;;;;;;5016588;28;20424;-60
2021/12/04 13:40:14;;;;;;;1.37;0.87;;;10.70;99.90;;;;;;5016003;28;20402;-61
2021/12/04 13:42:40;;;;;;;1.10;0.80;;;10.70;99.90;;;;;;5016218;28;20407;-61
2021/12/04 13:45:10;;;;;;;0.87;0.67;;;10.80;99.90;;;;;;5017190;28;20402;-62
2021/12/04 13:47:37;;;;;;;1.97;0.83;;;10.80;99.90;;;;;;5015676;28;20466;-59
2021/12/04 13:52:50;;;;;;;1.67;0.80;;;10.70;99.90;;;;;;5015925;28;20433;-61
2021/12/04 13:55:18;;;;;;;0.87;0.67;;;10.60;99.90;;;;;;5016587;28;20399;-61
2021/12/04 13:57:44;;;;;;;0.70;0.60;;;10.50;99.90;;;;;;5015690;28;20193;-61
2021/12/04 14:00:12;;;;;;;1.00;0.80;;;10.50;99.90;;;;;;5015279;28;20497;-59
2021/12/04 14:02:39;;;;;;;2.10;1.17;;;10.40;99.90;;;;;;5017849;28;20395;-61
2021/12/04 14:05:15;;;;;;;2.53;1.43;;;10.40;99.90;;;;;;5017337;28;20412;-61
2021/12/04 14:08:08;;;;;;;1.90;1.40;;;10.40;99.90;;;;;;5019372;28;20456;-59
2021/12/04 14:10:41;;;;;;;1.10;1.00;;;10.30;99.90;;;;;;5017712;28;20842;-63
2021/12/04 14:13:08;;;;;;;1.50;1.03;;;10.30;99.90;;;;;;5017195;28;20485;-62
2021/12/04 14:15:35;;;;;;;1.87;0.90;;;10.30;99.90;;;;;;5017131;28;20907;-64
2021/12/04 14:18:10;;;;;;;0.90;0.70;;;10.40;99.90;;;;;;5015986;28;20454;-62
2021/12/04 14:20:38;;;;;;;1.33;0.80;;;10.30;99.90;;;;;;5015587;28;20880;-60
2021/12/04 14:23:04;;;;;;;1.83;0.80;;;10.30;99.90;;;;;;5016318;28;20445;-62
2021/12/04 14:25:30;;;;;;;1.00;0.90;;;10.30;99.90;;;;;;5017090;28;20418;-63
2021/12/04 14:28:00;;;;;;;1.47;1.00;;;10.40;99.90;;;;;;5028730;23;20507;-59
2021/12/04 14:30:35;;;;;;;1.07;0.90;;;10.50;99.90;;;;;;4995336;28;20499;-56
2021/12/04 14:33:04;;;;;;;1.10;1.00;;;10.50;99.90;;;;;;4992756;28;20509;-58
2021/12/04 14:35:35;;;;;;;1.90;1.50;;;10.50;99.90;;;;;;4979782;28;20488;-57
2021/12/04 14:38:03;;;;;;;1.70;1.27;;;10.40;99.90;;;;;;4995314;28;20436;-60
2021/12/04 14:40:47;;;;;;;1.90;1.10;;;10.30;99.90;;;;;;4995656;28;20764;-60
2021/12/04 14:43:17;;;;;;;1.10;1.00;;;10.50;99.90;;;;;;5012503;28;20490;-59
2021/12/04 14:45:47;;;;;;;2.07;1.53;;;10.50;99.90;;;;;;4979598;28;20916;-57
2021/12/04 14:48:22;;;;;;;2.10;1.13;;;10.30;99.90;;;;;;4978797;28;20550;-60
2021/12/04 14:50:52;;;;;;;1.30;1.20;;;10.20;99.90;;;;;;4979700;28;20401;-59
2021/12/04 14:53:20;;;;;;;1.13;1.03;;;10.00;99.90;;;;;;5013673;28;20406;-59
2021/12/04 14:55:51;;;;;;;1.20;1.10;;;10.10;99.90;;;;;;4995325;28;20843;-58
2021/12/04 14:58:20;;;;;;;1.40;1.10;;;10.10;99.90;;;;;;4979292;28;20507;-60
2021/12/04 15:00:55;;;;;;;3.90;1.37;;;10.20;99.90;;;;;;4978623;28;20425;-60
2021/12/04 15:03:37;;;;;;;2.70;0.93;;;10.10;99.90;;;;;;5013079;28;20413;-60
2021/12/04 15:06:06;;;;;;;1.40;1.00;;;10.20;99.90;;;;;;5011802;28;20422;-60
2021/12/04 15:08:39;;;;;;;0.90;0.87;;;10.10;99.90;;;;;;4979720;28;20424;-60
2021/12/04 15:11:21;;;;;;;2.97;1.37;;;10.10;99.90;;;;;;5011964;28;20456;-58
2021/12/04 15:14:11;;;;;;;1.40;1.00;;;10.30;99.90;;;;;;4996140;28;20431;-59
2021/12/04 15:16:48;;;;;;;1.83;1.20;;;10.30;99.90;;;;;;4980501;28;20436;-61
2021/12/04 15:19:37;;;;;;;1.20;1.03;;;10.20;99.90;;;;;;5010739;28;20418;-61
2021/12/04 15:22:03;;;;;;;1.60;1.13;;;10.30;99.90;;;;;;4997375;28;20398;-61
2021/12/04 15:24:38;;;;;;;1.20;1.00;;;10.40;99.90;;;;;;4995021;28;20414;-62
2021/12/04 15:27:07;;;;;;;1.70;1.03;;;10.20;99.90;;;;;;5012547;28;20215;-60
2021/12/04 15:29:34;;;;;;;1.13;0.90;;;10.20;99.90;;;;;;5012228;28;20399;-61
2021/12/04 15:32:06;;;;;;;1.40;1.10;;;10.20;99.90;;;;;;5013086;28;20403;-62
2021/12/04 15:34:39;;;;;;;1.37;1.03;;;10.30;99.90;;;;;;4999208;28;20387;-60
2021/12/04 15:37:06;;;;;;;1.20;1.10;;;10.30;99.90;;;;;;5006948;28;20459;-58
2021/12/04 15:39:45;;;;;;;1.83;1.13;;;10.30;99.90;;;;;;4998543;28;20601;-60
2021/12/04 15:42:29;;;;;;;1.27;1.00;;;10.30;99.90;;;;;;5016581;28;20407;-58
2021/12/04 15:48:33;;;;;;;1.13;0.90;;;10.40;99.90;;;;;;4999987;28;20953;-60
2021/12/04 15:53:13;;;;;;;1.20;1.10;;;10.20;99.90;;;;;;5016442;28;20385;-60
2021/12/04 15:55:46;;;;;;;1.00;0.90;;;10.30;99.90;;;;;;4999299;28;20898;-61
2021/12/04 15:58:16;;;;;;;0.83;0.83;;;10.40;99.90;;;;;;4982011;28;20438;-60
2021/12/04 16:00:47;;;;;;;1.20;1.10;;;10.60;99.90;;;;;;4998167;28;20422;-59
2021/12/04 16:03:16;;;;;;;1.30;1.00;;;10.70;99.90;;;;;;4998847;28;20425;-60
2021/12/04 16:06:01;;;;;;;1.33;1.23;;;10.50;99.90;;;;;;4981828;28;20420;-58
2021/12/04 16:08:29;;;;;;;1.57;0.83;;;10.40;99.90;;;;;;5016019;28;20439;-60
2021/12/04 16:10:56;;;;;;;0.93;0.90;;;10.50;99.90;;;;;;4997561;28;20500;-59
2021/12/04 16:13:30;;;;;;;4.33;2.00;;;10.60;99.90;;;;;;4999527;28;20970;-60
2021/12/04 16:15:57;;;;;;;1.10;1.00;;;10.50;99.90;;;;;;5015974;28;20404;-60
2021/12/04 16:18:28;;;;;;;1.90;1.37;;;10.30;99.90;;;;;;5015156;28;20918;-61
2021/12/04 16:20:55;;;;;;;1.90;1.00;;;10.50;99.90;;;;;;4981767;28;20499;-59
2021/12/04 16:23:24;;;;;;;1.40;1.10;;;10.60;99.90;;;;;;5015984;28;20403;-60
2021/12/04 16:25:50;;;;;;;1.43;1.33;;;10.50;99.90;;;;;;5015410;28;20947;-60
2021/12/04 16:36:19;;;;;;;1.77;1.50;;;10.70;99.90;;;;;;5015895;28;20165;-60
2021/12/04 16:38:50;;;;;;;4.07;3.50;;;10.70;99.90;;;;;;5014162;28;20417;-58